createdAt,value
2022-09-13T00:03:17.057Z,28.7
2022-09-13T00:08:47.519Z,28.7
2022-09-13T00:14:17.051Z,28.7
2022-09-13T00:19:46.515Z,28.7
2022-09-13T00:25:17.058Z,28.7
2022-09-13T00:30:47.571Z,28.7
2022-09-13T00:36:17.038Z,28.7
2022-09-13T00:41:47.519Z,28.7
2022-09-13T00:47:17.037Z,28.7
2022-09-13T00:52:47.510Z,28.7
2022-09-13T00:58:17.980Z,28.6
2022-09-13T01:03:47.477Z,28.7
2022-09-13T01:09:17.962Z,28.6
2022-09-13T01:14:48.501Z,28.6
2022-09-13T01:20:18.418Z,28.6
2022-09-13T01:25:48.465Z,28.6
2022-09-13T01:31:19.067Z,28.6
2022-09-13T01:36:48.465Z,28.6
2022-09-13T01:42:18.904Z,28.6
2022-09-13T01:47:48.406Z,28.6
2022-09-13T01:53:18.900Z,28.6
2022-09-13T01:58:49.353Z,28.6
2022-09-13T02:04:18.867Z,28.6
2022-09-13T02:09:49.350Z,28.6
2022-09-13T02:15:19.809Z,28.5
2022-09-13T02:20:49.305Z,28.5
2022-09-13T02:26:19.918Z,28.5
2022-09-13T02:31:50.449Z,28.5
2022-09-13T02:37:19.838Z,28.5
2022-09-13T02:42:50.387Z,28.5
2022-09-13T02:48:19.832Z,28.5
2022-09-13T02:53:50.452Z,28.5
2022-09-13T02:59:20.794Z,28.5
2022-09-13T03:04:51.249Z,28.5
2022-09-13T03:10:20.758Z,28.5
2022-09-13T03:15:51.256Z,28.5
2022-09-13T03:21:21.725Z,28.5
2022-09-13T03:26:51.204Z,28.4
2022-09-13T03:32:21.751Z,28.5
2022-09-13T03:37:51.146Z,28.5
2022-09-13T03:43:21.626Z,28.4
2022-09-13T03:48:52.124Z,28.4
2022-09-13T03:54:21.591Z,28.4
2022-09-13T03:59:51.085Z,28.4
2022-09-13T04:05:21.685Z,28.4
2022-09-13T04:10:52.066Z,28.4
2022-09-13T04:16:22.694Z,28.4
2022-09-13T04:21:52.244Z,28.4
2022-09-13T04:27:22.617Z,28.4
2022-09-13T04:32:53.101Z,28.4
2022-09-13T04:38:22.692Z,28.4
2022-09-13T04:43:53.081Z,28.4
2022-09-13T04:49:23.560Z,28.4
2022-09-13T04:54:53.150Z,28.4
2022-09-13T05:00:23.532Z,28.4
2022-09-13T05:05:53.132Z,28.4
2022-09-13T05:11:23.600Z,28.4
2022-09-13T05:16:54.095Z,28.4
2022-09-13T05:22:23.577Z,28.4
2022-09-13T05:27:54.096Z,28.4
2022-09-13T05:33:24.519Z,28.4
2022-09-13T05:39:12.100Z,28.4
2022-09-13T05:44:24.513Z,28.4
2022-09-13T05:50:11.644Z,28.5
2022-09-13T05:55:24.455Z,28.5
2022-09-13T06:00:55.025Z,28.4
2022-09-13T06:06:24.420Z,28.4
2022-09-13T06:11:54.886Z,28.4
2022-09-13T06:17:25.384Z,28.4
2022-09-13T06:22:54.861Z,28.4
2022-09-13T06:28:25.328Z,28.5
2022-09-13T06:33:55.825Z,28.5
2022-09-13T06:39:26.397Z,28.6
2022-09-13T06:44:55.860Z,28.6
2022-09-13T06:50:26.469Z,28.7
2022-09-13T06:55:55.867Z,28.7
2022-09-13T07:01:26.553Z,28.8
2022-09-13T07:06:56.874Z,28.8
2022-09-13T07:12:26.331Z,28.8
2022-09-13T07:17:56.777Z,28.8
2022-09-13T07:23:27.367Z,28.8
2022-09-13T07:28:56.756Z,28.9
2022-09-13T07:34:27.221Z,29
2022-09-13T07:39:56.834Z,29
2022-09-13T07:45:26.283Z,29.2
2022-09-13T07:50:56.776Z,29.4
2022-09-13T07:56:27.370Z,29.5
2022-09-13T08:01:56.852Z,29.7
2022-09-13T08:07:27.183Z,29.8
2022-09-13T08:12:57.714Z,29.9
2022-09-13T08:18:27.199Z,30.2
2022-09-13T08:23:57.657Z,30.6
2022-09-13T08:29:27.166Z,30.9
2022-09-13T08:34:57.606Z,31.3
2022-09-13T08:40:28.078Z,31.3
2022-09-13T08:45:58.734Z,31.7
2022-09-13T08:51:28.050Z,31.9
2022-09-13T08:56:58.531Z,31.9
2022-09-13T09:02:28.102Z,31.7
2022-09-13T09:07:58.485Z,31.8
2022-09-13T09:13:29.083Z,32.1
2022-09-13T09:18:58.470Z,32.5
2022-09-13T09:24:28.945Z,32.9
2022-09-13T09:29:59.378Z,32.8
2022-09-13T09:35:28.970Z,32.6
2022-09-13T09:40:59.345Z,32.5
2022-09-13T09:46:29.861Z,32.3
2022-09-13T09:51:59.431Z,32
2022-09-13T09:57:29.780Z,31.8
2022-09-13T10:02:59.250Z,31.7
2022-09-13T10:08:29.765Z,31.6
2022-09-13T10:14:00.178Z,31.6
2022-09-13T10:19:29.695Z,31.5
2022-09-13T10:25:00.264Z,31.5
2022-09-13T10:30:30.714Z,31.4
2022-09-13T10:36:00.131Z,31.3
2022-09-13T10:41:30.613Z,31.3
2022-09-13T10:47:01.057Z,31.3
2022-09-13T10:52:30.545Z,31.2
2022-09-13T10:58:01.055Z,31.2
2022-09-13T11:03:31.517Z,31.3
2022-09-13T11:09:01.022Z,31.3
2022-09-13T11:14:31.531Z,31.3
2022-09-13T11:20:00.960Z,31.3
2022-09-13T11:25:30.445Z,31.3
2022-09-13T11:31:00.998Z,31.4
2022-09-13T11:36:31.442Z,31.4
2022-09-13T11:42:00.908Z,31.4
2022-09-13T11:47:31.496Z,31.5
2022-09-13T11:53:00.891Z,31.5
2022-09-13T11:58:31.378Z,31.5
2022-09-13T12:04:01.886Z,31.6
2022-09-13T12:09:31.351Z,31.5
2022-09-13T12:15:01.859Z,31.5
2022-09-13T12:20:32.428Z,31.5
2022-09-13T12:26:02.782Z,31.4
2022-09-13T12:31:33.305Z,31.4
2022-09-13T12:37:02.800Z,31.3
2022-09-13T12:42:33.211Z,31.4
2022-09-13T12:48:03.670Z,31.3
2022-09-13T12:53:33.372Z,31.3
2022-09-13T12:59:03.778Z,31.3
2022-09-13T13:04:33.292Z,31.3
2022-09-13T13:10:04.011Z,31.3
2022-09-13T13:15:34.240Z,31.3
2022-09-13T13:21:03.725Z,31.3
2022-09-13T13:26:34.268Z,31.3
2022-09-13T13:32:04.779Z,31.2
2022-09-13T13:37:34.163Z,31.1
2022-09-13T13:43:05.098Z,31.1
2022-09-13T13:48:34.140Z,31.1
2022-09-13T13:54:04.703Z,31.1
2022-09-13T13:59:35.206Z,31.1
2022-09-13T14:05:04.653Z,31.2
2022-09-13T14:10:35.177Z,31.2
2022-09-13T14:16:05.657Z,31.2
2022-09-13T14:21:35.119Z,31.2
2022-09-13T14:27:09.252Z,31.2
2022-09-13T14:32:39.752Z,31.2
2022-09-13T14:38:05.558Z,31.2
2022-09-13T14:43:36.032Z,31.2
2022-09-13T14:49:05.837Z,31.2
2022-09-13T14:54:36.006Z,31
2022-09-13T15:00:06.471Z,31.1
2022-09-13T15:05:35.014Z,31.1
2022-09-13T15:11:05.479Z,31
2022-09-13T15:16:36.032Z,31
2022-09-13T15:22:06.528Z,31
2022-09-13T15:27:35.887Z,30.9
2022-09-13T15:33:06.369Z,30.9
2022-09-13T15:38:35.878Z,30.9
2022-09-13T15:44:06.345Z,30.9
2022-09-13T15:49:36.830Z,30.7
2022-09-13T15:55:06.341Z,30.7
2022-09-13T16:00:36.849Z,30.6
2022-09-13T16:06:07.273Z,30.6
2022-09-13T16:11:36.795Z,30.5
2022-09-13T16:17:07.237Z,30.5
2022-09-13T16:22:37.716Z,30.5
2022-09-13T16:28:07.243Z,30.4
2022-09-13T16:33:37.680Z,30.4
2022-09-13T16:39:07.157Z,30.4
2022-09-13T16:46:49.940Z,30.3
2022-09-13T16:52:20.279Z,30.3
2022-09-13T16:57:49.793Z,30.2
2022-09-13T17:03:20.300Z,30
2022-09-13T17:08:50.827Z,30
2022-09-13T17:14:20.218Z,30
2022-09-13T17:19:50.720Z,29.9
2022-09-13T17:25:20.161Z,29.9
2022-09-13T17:30:50.695Z,29.9
2022-09-13T17:36:21.222Z,29.9
2022-09-13T17:41:50.593Z,29.9
2022-09-13T17:47:21.085Z,29.9
2022-09-13T17:52:51.638Z,29.8
2022-09-13T17:58:22.021Z,29.8
2022-09-13T18:03:51.504Z,29.8
2022-09-13T18:09:21.992Z,29.8
2022-09-13T18:14:52.427Z,29.7
2022-09-13T18:20:21.940Z,29.7
2022-09-13T18:25:52.530Z,29.7
2022-09-13T18:31:22.949Z,29.7
2022-09-13T18:36:52.378Z,29.6
2022-09-13T18:42:22.903Z,29.6
2022-09-13T18:47:53.342Z,29.6
2022-09-13T18:53:31.849Z,29.6
2022-09-13T18:58:53.425Z,29.6
2022-09-13T19:04:23.757Z,29.5
2022-09-13T19:09:53.339Z,29.5
2022-09-13T19:15:23.868Z,29.5
2022-09-13T19:20:54.332Z,29.5
2022-09-13T19:26:23.794Z,29.5
2022-09-13T19:31:54.286Z,29.4
2022-09-13T19:37:23.761Z,29.4
2022-09-13T19:42:54.196Z,29.4
2022-09-13T19:48:38.196Z,29.4
2022-09-13T19:53:57.262Z,29.4
2022-09-13T19:59:24.621Z,29.4
2022-09-13T20:04:55.202Z,29.4
2022-09-13T20:10:24.606Z,29.4
2022-09-13T20:15:55.167Z,29.4
2022-09-13T20:21:25.587Z,29.4
2022-09-13T20:26:55.131Z,29.4
2022-09-13T20:32:25.609Z,29.4
2022-09-13T20:37:56.224Z,29.4
2022-09-13T20:43:25.602Z,29.4
2022-09-13T20:48:56.090Z,29.4
2022-09-13T20:54:25.576Z,29.4
2022-09-13T20:59:56.019Z,29.3
2022-09-13T21:05:26.535Z,29.3
2022-09-13T21:10:56.032Z,29.3
2022-09-13T21:16:26.549Z,29.3
2022-09-13T21:21:56.965Z,29.3
2022-09-13T21:27:26.525Z,29.2
2022-09-13T21:32:56.936Z,29.2
2022-09-13T21:38:26.443Z,29.3
2022-09-13T21:43:57.001Z,29.3
2022-09-13T21:49:27.383Z,29.3
2022-09-13T21:54:56.859Z,29.3
2022-09-13T22:00:27.370Z,29.2
2022-09-13T22:05:57.804Z,29.2
2022-09-13T22:11:28.268Z,29.2
2022-09-13T22:16:58.130Z,29.2
2022-09-13T22:22:28.329Z,29.2
2022-09-13T22:27:58.837Z,29.2
2022-09-13T22:33:27.563Z,29.2
2022-09-13T22:38:57.810Z,29.2
2022-09-13T22:44:28.263Z,29.2
2022-09-13T22:49:58.793Z,29.1
2022-09-13T22:55:28.245Z,29.1
2022-09-13T23:00:58.736Z,29.1
2022-09-13T23:06:29.245Z,29.1
2022-09-13T23:11:58.690Z,29.1
2022-09-13T23:17:29.153Z,29.1
2022-09-13T23:22:58.668Z,29.1
2022-09-13T23:28:29.135Z,29.1
2022-09-13T23:33:59.616Z,29.1
2022-09-13T23:39:29.121Z,29.1
2022-09-13T23:44:59.584Z,29.1
2022-09-13T23:50:30.069Z,29
2022-09-13T23:55:59.573Z,29
